Time;durP1;ratioP1;P1;durP2;ratioP2;P2;SDS_P1;SDS_P2;PMS_P1;PMS_P2;Temp;Humidity;BMP_temperature;BMP_pressure;BME280_temperature;BME280_humidity;BME280_pressure;Samples;Min_cycle;Max_cycle;Signal;HPM_P1;HPM_P2
2023/05/06 00:00:17;;;;;;;3.45;1.90;;;21.30;54.70;;;;;;5033227;28;20227;-85
2023/05/06 00:02:45;;;;;;;2.35;1.70;;;21.30;54.10;;;;;;5033567;28;20207;-85
2023/05/06 00:05:13;;;;;;;1.60;1.50;;;21.30;54.20;;;;;;5032399;28;20662;-85
2023/05/06 00:07:42;;;;;;;1.90;1.60;;;21.30;54.10;;;;;;5033231;28;20254;-85
2023/05/06 00:10:10;;;;;;;1.75;1.65;;;21.30;54.20;;;;;;5036197;28;20222;-85
2023/05/06 00:12:37;;;;;;;1.70;1.60;;;21.20;54.10;;;;;;5037590;28;20589;-85
2023/05/06 00:15:06;;;;;;;1.75;1.60;;;21.20;54.10;;;;;;5037109;28;20612;-85
2023/05/06 00:17:33;;;;;;;1.63;1.52;;;21.20;54.20;;;;;;5036091;28;20192;-85
2023/05/06 00:20:00;;;;;;;2.25;1.60;;;21.20;54.10;;;;;;5035899;28;20314;-85
2023/05/06 00:22:28;;;;;;;1.70;1.60;;;21.20;54.10;;;;;;5036136;28;20533;-85
2023/05/06 00:24:56;;;;;;;1.60;1.50;;;21.20;54.10;;;;;;5036127;28;20248;-85
2023/05/06 00:27:23;;;;;;;2.05;1.85;;;21.20;54.10;;;;;;5035982;28;20225;-85
2023/05/06 00:29:50;;;;;;;2.33;1.98;;;21.20;54.10;;;;;;5036184;28;20251;-85
2023/05/06 00:32:17;;;;;;;2.00;1.80;;;21.20;54.20;;;;;;5036686;28;20231;-85
2023/05/06 00:34:45;;;;;;;1.70;1.60;;;21.10;54.10;;;;;;5036215;28;20742;-85
2023/05/06 00:37:12;;;;;;;1.85;1.75;;;21.20;54.20;;;;;;5035669;28;20254;-85
2023/05/06 00:39:39;;;;;;;2.13;1.48;;;21.10;54.00;;;;;;5036031;28;20234;-85
2023/05/06 00:42:08;;;;;;;1.83;1.73;;;21.20;54.10;;;;;;5035930;28;20654;-85
2023/05/06 00:44:36;;;;;;;2.15;1.80;;;21.10;54.00;;;;;;5035591;28;20694;-85
2023/05/06 00:47:03;;;;;;;2.58;1.70;;;21.10;54.10;;;;;;5035778;28;20259;-85
2023/05/06 00:49:31;;;;;;;3.22;1.80;;;21.10;54.00;;;;;;5035385;28;20223;-85
2023/05/06 00:52:00;;;;;;;3.28;1.95;;;21.10;54.10;;;;;;5035010;28;20227;-85
2023/05/06 00:54:28;;;;;;;1.77;1.67;;;21.10;54.00;;;;;;5035285;28;20196;-85
2023/05/06 00:56:55;;;;;;;2.05;1.70;;;21.10;54.00;;;;;;5034817;28;20200;-85
2023/05/06 00:59:24;;;;;;;1.90;1.75;;;21.10;54.00;;;;;;5034967;28;20219;-85
2023/05/06 01:01:52;;;;;;;1.90;1.80;;;21.10;54.00;;;;;;5035205;28;20532;-85
2023/05/06 01:04:20;;;;;;;1.90;1.80;;;21.00;53.90;;;;;;5035731;28;20220;-85
2023/05/06 01:06:51;;;;;;;2.42;1.80;;;21.00;53.90;;;;;;5034773;28;20290;-85
2023/05/06 01:09:21;;;;;;;3.22;1.77;;;21.00;54.00;;;;;;5035542;28;20255;-86
2023/05/06 01:11:50;;;;;;;2.13;1.60;;;21.00;54.00;;;;;;5035066;28;20206;-85
2023/05/06 01:14:21;;;;;;;2.00;1.80;;;21.00;54.10;;;;;;5034802;28;20607;-85
2023/05/06 01:16:52;;;;;;;1.92;1.83;;;21.00;54.10;;;;;;5035742;28;20218;-85
2023/05/06 01:19:29;;;;;;;1.70;1.60;;;20.90;54.10;;;;;;5034782;28;20698;-85
2023/05/06 01:21:56;;;;;;;1.70;1.60;;;20.90;54.00;;;;;;5034810;28;20188;-85
2023/05/06 01:24:36;;;;;;;2.53;1.55;;;20.90;54.00;;;;;;5034879;28;20196;-85
2023/05/06 01:27:03;;;;;;;1.73;1.63;;;21.00;54.20;;;;;;5018641;28;20215;-85
2023/05/06 01:29:31;;;;;;;1.70;1.60;;;20.90;54.10;;;;;;5035440;28;20724;-85
2023/05/06 01:32:02;;;;;;;1.60;1.50;;;20.90;54.10;;;;;;5035821;28;20269;-85
2023/05/06 01:34:33;;;;;;;2.50;1.67;;;20.90;54.10;;;;;;5034644;28;20196;-85
2023/05/06 01:37:03;;;;;;;2.63;1.60;;;20.90;54.10;;;;;;5034542;28;20262;-85
2023/05/06 01:39:30;;;;;;;1.63;1.45;;;20.80;54.10;;;;;;5034207;28;20223;-85
2023/05/06 01:42:00;;;;;;;1.65;1.55;;;20.90;54.20;;;;;;5035705;28;20241;-85
2023/05/06 01:44:29;;;;;;;2.08;1.67;;;20.90;54.20;;;;;;5034921;28;20199;-85
2023/05/06 01:46:56;;;;;;;1.60;1.50;;;20.90;54.20;;;;;;5034082;28;20198;-84
2023/05/06 01:49:23;;;;;;;1.40;1.30;;;20.80;54.10;;;;;;5034246;28;20227;-85
2023/05/06 01:51:51;;;;;;;1.65;1.52;;;20.90;54.20;;;;;;5034706;28;20196;-85
2023/05/06 01:54:18;;;;;;;1.52;1.42;;;20.80;54.20;;;;;;5035428;28;20300;-85
2023/05/06 01:56:45;;;;;;;1.60;1.50;;;20.90;54.20;;;;;;5035152;28;20208;-85
2023/05/06 01:59:14;;;;;;;1.98;1.30;;;20.80;54.10;;;;;;5034739;28;20200;-85
2023/05/06 02:01:41;;;;;;;1.60;1.50;;;20.80;54.20;;;;;;5046309;28;20546;-85
2023/05/06 02:04:08;;;;;;;3.05;1.58;;;20.80;54.10;;;;;;5034446;28;20207;-85
2023/05/06 02:06:36;;;;;;;2.25;1.48;;;20.80;54.30;;;;;;5018042;28;20255;-84
2023/05/06 02:09:03;;;;;;;1.40;1.30;;;20.80;54.30;;;;;;5017825;28;20196;-85
2023/05/06 02:11:34;;;;;;;2.05;1.50;;;20.80;54.20;;;;;;5034384;28;20573;-85
2023/05/06 02:14:04;;;;;;;1.42;1.30;;;20.70;54.10;;;;;;5019379;28;20580;-85
2023/05/06 02:16:34;;;;;;;1.88;1.30;;;20.80;54.30;;;;;;5034149;28;20192;-85
2023/05/06 02:19:02;;;;;;;1.33;1.23;;;20.80;54.30;;;;;;5034341;28;20210;-85
2023/05/06 02:21:29;;;;;;;1.85;1.48;;;20.80;54.30;;;;;;5034231;28;20624;-85
2023/05/06 02:23:56;;;;;;;1.23;1.20;;;20.70;54.20;;;;;;5034363;28;20220;-85
2023/05/06 02:26:23;;;;;;;1.48;1.38;;;20.80;54.30;;;;;;5034781;28;20227;-85
2023/05/06 02:35:46;;;;;;;1.45;1.35;;;20.70;54.30;;;;;;4994515;28;20224;-63
2023/05/06 02:38:13;;;;;;;2.45;1.60;;;20.70;54.30;;;;;;4976921;28;20225;-63
2023/05/06 02:40:40;;;;;;;1.52;1.30;;;20.70;54.30;;;;;;4994250;28;20189;-63
2023/05/06 02:43:07;;;;;;;1.48;1.38;;;20.70;54.30;;;;;;4994220;28;20193;-63
2023/05/06 02:45:34;;;;;;;1.98;1.30;;;20.70;54.30;;;;;;4977052;28;20232;-63
2023/05/06 02:48:01;;;;;;;1.40;1.30;;;20.70;54.30;;;;;;5004650;23;20249;-85
2023/05/06 02:50:29;;;;;;;1.42;1.33;;;20.70;54.30;;;;;;4976446;28;20197;-84
2023/05/06 02:52:58;;;;;;;1.35;1.10;;;20.70;54.30;;;;;;4977350;28;20276;-85
2023/05/06 02:55:25;;;;;;;2.05;1.40;;;20.70;54.30;;;;;;4953582;28;20252;-84
2023/05/06 02:57:52;;;;;;;1.65;1.30;;;20.70;54.30;;;;;;4963052;28;20228;-85
2023/05/06 03:00:20;;;;;;;1.33;1.23;;;20.70;54.30;;;;;;4962600;28;20206;-84
2023/05/06 03:02:48;;;;;;;1.30;1.20;;;20.70;54.30;;;;;;4961237;28;20230;-84
2023/05/06 03:05:15;;;;;;;1.42;1.33;;;20.70;54.30;;;;;;4962041;28;20221;-84
2023/05/06 03:07:41;;;;;;;1.23;1.17;;;20.60;54.30;;;;;;4962798;28;20202;-85
2023/05/06 03:10:11;;;;;;;1.55;1.27;;;20.70;54.40;;;;;;4962075;28;20202;-85
2023/05/06 03:12:38;;;;;;;1.30;1.30;;;20.70;54.30;;;;;;4962438;28;20289;-84
2023/05/06 03:15:06;;;;;;;1.00;1.00;;;20.60;54.30;;;;;;4962950;28;20197;-85
2023/05/06 03:17:33;;;;;;;1.52;1.42;;;20.70;54.30;;;;;;4961121;28;20206;-85
2023/05/06 03:20:04;;;;;;;1.80;1.30;;;20.70;54.30;;;;;;4960789;28;20201;-84
2023/05/06 03:22:31;;;;;;;1.40;1.30;;;20.60;54.20;;;;;;4960609;28;20264;-85
2023/05/06 03:24:59;;;;;;;2.72;1.38;;;20.70;54.20;;;;;;4959973;28;20198;-85
2023/05/06 03:27:29;;;;;;;1.45;1.35;;;20.70;54.10;;;;;;4959690;28;20202;-85
2023/05/06 03:30:02;;;;;;;1.20;1.20;;;20.70;54.00;;;;;;4959466;28;20543;-85
2023/05/06 03:32:30;;;;;;;2.40;1.30;;;20.80;54.00;;;;;;4959898;28;20218;-85
2023/05/06 03:34:59;;;;;;;1.30;1.20;;;20.80;53.90;;;;;;4959205;28;20293;-85
2023/05/06 03:37:26;;;;;;;1.40;1.30;;;20.80;53.80;;;;;;4944032;28;20286;-85
2023/05/06 03:39:56;;;;;;;1.40;1.30;;;20.80;53.70;;;;;;4959918;28;20290;-85
2023/05/06 03:42:26;;;;;;;1.30;1.20;;;20.80;53.70;;;;;;4959340;28;20210;-85
2023/05/06 03:44:55;;;;;;;1.40;1.30;;;20.80;53.70;;;;;;4963012;28;20672;-85
2023/05/06 03:47:23;;;;;;;1.23;1.10;;;20.80;53.60;;;;;;4964768;28;20210;-85
2023/05/06 03:49:51;;;;;;;1.27;1.17;;;20.90;53.60;;;;;;4964914;28;20205;-85
2023/05/06 03:52:18;;;;;;;1.48;1.38;;;20.80;53.60;;;;;;4964060;28;20245;-84
2023/05/06 03:54:46;;;;;;;1.30;1.20;;;20.90;53.60;;;;;;4962460;28;20246;-84
2023/05/06 03:57:13;;;;;;;1.42;1.23;;;20.90;53.60;;;;;;4962318;28;20201;-85
2023/05/06 03:59:40;;;;;;;1.55;1.10;;;20.80;53.40;;;;;;4961901;28;20202;-85
2023/05/06 04:02:09;;;;;;;1.30;1.20;;;20.90;53.40;;;;;;4961970;28;20254;-85
2023/05/06 04:04:38;;;;;;;1.95;1.20;;;20.90;53.50;;;;;;4962520;28;20194;-85
2023/05/06 04:07:05;;;;;;;1.30;1.20;;;20.90;53.40;;;;;;4963126;28;20225;-85
2023/05/06 04:09:32;;;;;;;1.30;1.20;;;20.90;53.40;;;;;;4962601;28;20611;-84
2023/05/06 04:12:02;;;;;;;1.65;1.20;;;20.90;53.40;;;;;;4963449;28;20249;-85
2023/05/06 04:14:30;;;;;;;3.15;1.38;;;20.90;53.40;;;;;;4962006;28;20741;-85
2023/05/06 04:16:58;;;;;;;1.40;1.30;;;20.90;53.40;;;;;;4962238;28;20194;-85
2023/05/06 04:19:27;;;;;;;1.30;1.20;;;20.90;53.40;;;;;;4962100;28;20285;-85
2023/05/06 04:21:55;;;;;;;2.38;1.30;;;20.90;53.30;;;;;;4961936;28;20265;-85
2023/05/06 04:24:22;;;;;;;1.60;1.50;;;20.90;53.20;;;;;;4961708;28;20210;-85
2023/05/06 04:26:50;;;;;;;1.48;1.38;;;20.90;53.20;;;;;;4961750;28;20249;-85
2023/05/06 04:29:19;;;;;;;1.27;1.27;;;20.90;53.20;;;;;;4962141;28;20198;-85
2023/05/06 04:31:57;;;;;;;1.33;1.20;;;20.90;53.20;;;;;;4962312;28;20217;-85
2023/05/06 04:34:27;;;;;;;1.38;1.15;;;20.80;53.10;;;;;;4962960;28;20241;-84
2023/05/06 04:36:58;;;;;;;1.58;1.48;;;20.90;53.10;;;;;;4961005;28;20504;-85
2023/05/06 04:39:48;;;;;;;2.75;1.30;;;20.90;53.10;;;;;;4962003;28;20532;-85
2023/05/06 04:42:15;;;;;;;1.30;1.20;;;20.90;53.00;;;;;;4961152;28;20638;-84
2023/05/06 04:44:52;;;;;;;2.78;1.38;;;20.80;53.00;;;;;;4961902;28;20268;-84
2023/05/06 04:47:25;;;;;;;1.20;1.20;;;20.90;53.00;;;;;;4961580;28;20222;-85
2023/05/06 04:49:54;;;;;;;2.30;1.38;;;20.90;53.00;;;;;;4961298;28;20194;-85
2023/05/06 04:52:23;;;;;;;2.08;1.23;;;20.90;53.00;;;;;;4961569;28;20222;-85
2023/05/06 04:54:51;;;;;;;1.42;1.33;;;20.90;53.00;;;;;;4961246;28;20202;-85
2023/05/06 04:57:19;;;;;;;1.15;1.15;;;20.90;52.90;;;;;;4946008;28;20285;-84
2023/05/06 04:59:47;;;;;;;1.20;1.20;;;20.90;52.80;;;;;;4961624;28;20668;-85
2023/05/06 05:02:14;;;;;;;1.50;1.40;;;21.00;53.00;;;;;;4962587;28;20730;-85
2023/05/06 05:04:42;;;;;;;1.60;1.10;;;21.00;52.80;;;;;;4962747;28;20202;-84
2023/05/06 05:07:11;;;;;;;1.30;1.20;;;21.00;52.70;;;;;;4961727;28;20672;-84
2023/05/06 05:09:38;;;;;;;1.38;1.27;;;21.00;52.70;;;;;;4961660;28;20198;-84
2023/05/06 05:12:07;;;;;;;1.40;1.30;;;21.10;52.80;;;;;;4946779;28;20222;-84
2023/05/06 05:14:38;;;;;;;1.50;1.35;;;21.20;52.70;;;;;;4963743;28;20186;-84
2023/05/06 05:17:07;;;;;;;1.23;1.15;;;21.20;52.60;;;;;;4962689;28;20194;-84
2023/05/06 05:19:34;;;;;;;1.40;1.30;;;21.20;52.40;;;;;;4946643;28;20198;-84
2023/05/06 05:22:01;;;;;;;1.40;1.30;;;21.30;52.40;;;;;;4962477;28;20234;-84
2023/05/06 05:24:33;;;;;;;1.15;1.15;;;21.40;52.40;;;;;;4963080;28;20202;-85
2023/05/06 05:27:01;;;;;;;1.10;1.10;;;21.50;52.20;;;;;;4961744;28;20688;-84
2023/05/06 05:29:27;;;;;;;1.27;1.10;;;21.50;52.10;;;;;;4971278;28;20199;-84
2023/05/06 05:31:55;;;;;;;1.42;1.23;;;21.70;52.10;;;;;;4961088;28;20234;-84
2023/05/06 05:34:23;;;;;;;1.10;1.10;;;21.80;51.90;;;;;;4945558;28;20299;-84
2023/05/06 05:36:51;;;;;;;1.50;1.23;;;21.90;51.70;;;;;;4960374;28;20233;-84
2023/05/06 05:39:19;;;;;;;1.40;1.30;;;22.10;51.40;;;;;;4960214;28;20237;-84
2023/05/06 05:41:50;;;;;;;1.30;1.20;;;22.20;51.10;;;;;;4960191;28;20218;-84
2023/05/06 05:44:17;;;;;;;1.58;1.48;;;22.40;50.80;;;;;;4960273;28;20627;-84
2023/05/06 05:46:45;;;;;;;1.90;1.60;;;22.40;50.40;;;;;;4960689;28;20771;-84
2023/05/06 05:49:15;;;;;;;1.88;1.77;;;22.40;50.40;;;;;;4960872;28;20241;-84
2023/05/06 05:51:43;;;;;;;1.50;1.40;;;22.50;50.30;;;;;;4960689;28;20289;-84
2023/05/06 05:54:13;;;;;;;2.28;1.80;;;22.50;50.10;;;;;;4961114;28;20672;-84
2023/05/06 05:56:42;;;;;;;1.50;1.40;;;22.60;50.10;;;;;;4960036;28;20285;-84
2023/05/06 05:59:10;;;;;;;1.70;1.60;;;22.60;49.90;;;;;;4959937;28;20190;-84
2023/05/06 06:01:38;;;;;;;1.70;1.60;;;22.60;49.90;;;;;;4960380;28;20218;-84
2023/05/06 06:04:08;;;;;;;1.65;1.55;;;22.60;50.10;;;;;;4961674;28;20222;-84
2023/05/06 06:06:35;;;;;;;1.85;1.75;;;22.70;50.10;;;;;;4973270;28;20218;-84
2023/05/06 06:09:03;;;;;;;1.80;1.70;;;22.80;49.80;;;;;;4975268;28;20204;-84
2023/05/06 06:11:30;;;;;;;2.35;1.73;;;22.80;49.60;;;;;;4975809;28;20282;-84
2023/05/06 06:13:59;;;;;;;1.80;1.70;;;22.90;49.50;;;;;;4971634;28;20270;-83
2023/05/06 06:16:28;;;;;;;1.80;1.70;;;23.00;49.20;;;;;;4959968;28;20257;-83
2023/05/06 06:18:56;;;;;;;1.50;1.40;;;23.20;49.00;;;;;;4961861;28;20202;-84
2023/05/06 06:21:23;;;;;;;1.60;1.50;;;23.20;48.50;;;;;;4961713;28;20226;-84
2023/05/06 06:23:51;;;;;;;1.80;1.70;;;23.40;48.50;;;;;;4961628;28;20233;-84
2023/05/06 06:26:20;;;;;;;1.50;1.40;;;23.50;48.40;;;;;;4962489;28;20218;-84
2023/05/06 06:28:48;;;;;;;2.90;1.80;;;23.50;48.10;;;;;;4959928;28;20198;-84
2023/05/06 06:31:15;;;;;;;1.70;1.60;;;23.60;47.90;;;;;;4959752;28;20593;-85
2023/05/06 06:33:44;;;;;;;1.77;1.27;;;23.70;47.70;;;;;;4959891;28;20202;-84
2023/05/06 06:36:11;;;;;;;1.60;1.50;;;23.80;47.60;;;;;;4943731;28;20198;-84
2023/05/06 06:38:39;;;;;;;1.23;1.23;;;23.90;47.40;;;;;;4960105;28;20221;-85
2023/05/06 06:41:06;;;;;;;1.88;1.50;;;24.00;47.40;;;;;;4959297;28;20301;-86
2023/05/06 06:43:33;;;;;;;1.38;1.27;;;24.00;47.40;;;;;;4958547;28;20202;-86
2023/05/06 06:46:06;;;;;;;1.27;1.17;;;24.00;47.10;;;;;;4958677;28;20233;-85
2023/05/06 06:48:33;;;;;;;1.30;1.20;;;24.10;47.00;;;;;;4958863;28;20205;-84
2023/05/06 06:51:02;;;;;;;1.77;1.15;;;24.20;47.00;;;;;;4960045;28;20194;-84
2023/05/06 06:53:29;;;;;;;1.23;1.13;;;24.20;46.60;;;;;;4959454;28;20202;-84
2023/05/06 06:55:56;;;;;;;1.25;1.15;;;24.30;46.50;;;;;;4959892;28;20560;-85
2023/05/06 06:58:23;;;;;;;1.10;1.10;;;24.40;46.30;;;;;;4960872;28;20202;-85
2023/05/06 07:00:50;;;;;;;1.30;1.20;;;24.50;46.20;;;;;;4959347;28;20566;-85
2023/05/06 07:03:18;;;;;;;1.20;1.10;;;24.50;46.10;;;;;;4959338;28;20194;-84
2023/05/06 07:05:45;;;;;;;1.02;1.02;;;24.50;46.00;;;;;;4959444;28;20244;-84
2023/05/06 07:08:15;;;;;;;1.10;1.10;;;24.60;46.60;;;;;;4959028;28;20214;-84
2023/05/06 07:10:42;;;;;;;1.30;1.20;;;24.50;45.90;;;;;;4959935;28;20193;-81
2023/05/06 07:13:10;;;;;;;0.93;0.93;;;24.50;45.90;;;;;;4959835;28;20237;-81
2023/05/06 07:15:37;;;;;;;2.90;1.08;;;24.40;45.90;;;;;;4959337;28;20214;-81
2023/05/06 07:18:04;;;;;;;2.45;1.30;;;24.30;46.20;;;;;;4962356;28;20202;-81
2023/05/06 07:20:31;;;;;;;1.30;1.20;;;24.30;46.40;;;;;;4947671;28;20671;-81
2023/05/06 07:22:59;;;;;;;1.20;1.10;;;24.20;46.70;;;;;;4964958;28;20276;-80
2023/05/06 07:25:30;;;;;;;1.90;1.20;;;24.20;46.70;;;;;;4963736;28;20205;-81
2023/05/06 07:27:57;;;;;;;1.38;1.27;;;24.20;46.80;;;;;;4962642;28;20202;-81
2023/05/06 07:30:24;;;;;;;2.28;1.15;;;24.20;46.80;;;;;;4963388;28;20652;-80
2023/05/06 07:32:52;;;;;;;1.00;1.00;;;24.30;46.60;;;;;;4962907;28;20249;-81
2023/05/06 07:35:19;;;;;;;1.67;1.58;;;24.30;46.40;;;;;;4965392;28;20198;-79
2023/05/06 07:37:46;;;;;;;2.55;1.50;;;24.40;47.40;;;;;;4962798;28;20194;-80
2023/05/06 07:40:13;;;;;;;2.20;1.80;;;24.30;47.70;;;;;;4962950;28;20632;-81
2023/05/06 07:42:42;;;;;;;2.65;1.80;;;24.30;48.30;;;;;;4963850;28;20230;-80
2023/05/06 07:45:10;;;;;;;2.05;1.60;;;24.50;48.80;;;;;;4963017;28;20202;-80
2023/05/06 07:47:37;;;;;;;2.70;1.92;;;24.50;48.50;;;;;;4962326;28;20241;-80
2023/05/06 07:50:06;;;;;;;2.10;1.90;;;24.70;47.90;;;;;;4962753;28;20214;-81
2023/05/06 07:52:33;;;;;;;2.85;1.70;;;24.80;47.80;;;;;;4947271;28;20256;-81
2023/05/06 07:55:01;;;;;;;2.42;1.70;;;24.90;47.80;;;;;;4962357;28;20795;-80
2023/05/06 07:57:28;;;;;;;3.20;1.90;;;24.90;47.90;;;;;;4963493;28;20619;-81
2023/05/06 07:59:57;;;;;;;3.90;1.90;;;24.80;47.70;;;;;;4963322;28;20253;-81
2023/05/06 08:02:24;;;;;;;183.40;91.05;;;24.60;48.10;;;;;;4962816;28;20777;-81
2023/05/06 08:04:51;;;;;;;20.58;8.90;;;24.40;48.60;;;;;;4962618;28;20217;-81
2023/05/06 08:07:18;;;;;;;19.38;7.65;;;24.20;49.00;;;;;;4962756;28;20218;-81
2023/05/06 08:09:45;;;;;;;26.58;12.32;;;24.10;49.00;;;;;;4962501;28;20210;-81
2023/05/06 08:12:12;;;;;;;33.55;15.18;;;24.00;49.50;;;;;;4962374;28;20226;-81
2023/05/06 08:14:39;;;;;;;24.13;11.88;;;24.00;49.50;;;;;;4946647;28;20202;-81
2023/05/06 08:17:08;;;;;;;15.98;6.63;;;24.00;49.60;;;;;;4962915;28;20241;-81
2023/05/06 08:19:35;;;;;;;13.75;5.50;;;24.10;48.80;;;;;;4963697;28;20237;-81
2023/05/06 08:22:02;;;;;;;9.15;3.88;;;24.20;48.50;;;;;;4965124;28;20233;-81
2023/05/06 08:24:29;;;;;;;6.88;3.28;;;24.40;48.50;;;;;;4968725;28;20202;-80
2023/05/06 08:26:57;;;;;;;9.35;3.65;;;24.40;47.40;;;;;;4964045;28;20242;-81
2023/05/06 08:29:24;;;;;;;4.35;2.40;;;24.40;48.50;;;;;;4962828;28;20269;-81
2023/05/06 08:31:51;;;;;;;4.53;2.33;;;24.30;48.20;;;;;;4962775;28;20222;-81
2023/05/06 08:34:20;;;;;;;4.50;1.80;;;24.20;49.10;;;;;;4963122;28;20198;-81
2023/05/06 08:36:47;;;;;;;2.22;1.60;;;24.00;48.70;;;;;;4962186;28;20205;-81
2023/05/06 08:39:14;;;;;;;4.70;2.00;;;23.90;48.90;;;;;;4980127;28;20281;-81
2023/05/06 08:41:42;;;;;;;1.95;1.50;;;23.80;49.80;;;;;;4963380;28;20222;-81
2023/05/06 08:44:09;;;;;;;2.47;1.70;;;23.80;48.80;;;;;;4946785;28;20201;-81
2023/05/06 08:46:37;;;;;;;1.77;1.30;;;23.80;48.80;;;;;;4946480;28;20301;-81
2023/05/06 08:49:04;;;;;;;1.48;1.38;;;23.90;48.70;;;;;;4972338;28;20213;-81
2023/05/06 08:51:35;;;;;;;2.42;1.38;;;24.00;47.80;;;;;;4946732;28;20296;-81
2023/05/06 08:54:03;;;;;;;1.33;1.13;;;24.20;48.30;;;;;;4961591;28;20612;-80
2023/05/06 08:56:31;;;;;;;2.30;1.50;;;24.30;48.30;;;;;;4964086;28;20198;-80
2023/05/06 08:58:58;;;;;;;2.08;1.55;;;24.30;47.80;;;;;;4965695;28;20202;-80
2023/05/06 09:01:26;;;;;;;2.00;1.35;;;24.30;47.20;;;;;;4979968;28;20302;-80
2023/05/06 09:03:53;;;;;;;1.50;1.25;;;24.20;47.30;;;;;;4946631;28;20201;-80
2023/05/06 09:06:20;;;;;;;4.32;1.63;;;24.00;47.70;;;;;;4962753;28;20194;-80
2023/05/06 09:08:49;;;;;;;1.30;1.20;;;23.80;49.00;;;;;;4963562;28;20218;-80
2023/05/06 09:11:20;;;;;;;1.40;1.30;;;23.70;48.20;;;;;;4969956;28;20222;-80
2023/05/06 09:13:47;;;;;;;1.50;1.40;;;23.70;47.60;;;;;;4977482;28;20206;-80
2023/05/06 09:16:27;;;;;;;1.38;1.27;;;23.80;48.00;;;;;;4976715;28;20206;-81
2023/05/06 09:18:53;;;;;;;2.20;1.40;;;23.60;47.50;;;;;;4952303;28;20201;-82
2023/05/06 09:21:20;;;;;;;1.95;1.80;;;23.60;47.90;;;;;;4962309;28;20214;-82
2023/05/06 09:23:49;;;;;;;3.25;1.73;;;23.60;46.10;;;;;;4961310;28;20206;-81
2023/05/06 09:26:16;;;;;;;2.88;1.40;;;23.60;46.50;;;;;;4960740;28;20206;-81
2023/05/06 09:28:46;;;;;;;1.67;1.33;;;23.60;47.50;;;;;;4962506;28;20229;-81
2023/05/06 09:31:14;;;;;;;1.42;1.20;;;23.50;47.50;;;;;;4966239;28;20292;-82
2023/05/06 09:33:42;;;;;;;1.63;1.30;;;23.50;47.00;;;;;;4965035;28;20305;-81
2023/05/06 09:36:12;;;;;;;2.47;1.50;;;23.60;47.40;;;;;;4964781;28;20265;-82
2023/05/06 09:38:40;;;;;;;2.92;1.30;;;23.70;46.00;;;;;;4948813;28;20625;-81
2023/05/06 09:41:10;;;;;;;3.40;1.50;;;23.90;46.80;;;;;;4963256;28;20218;-82
2023/05/06 09:43:40;;;;;;;4.82;1.30;;;24.00;46.10;;;;;;4949164;28;20194;-81
2023/05/06 09:46:07;;;;;;;2.65;1.20;;;24.00;46.80;;;;;;4964065;28;20194;-82
2023/05/06 09:48:34;;;;;;;1.42;1.33;;;24.00;45.90;;;;;;4965600;28;20303;-82
2023/05/06 09:51:01;;;;;;;1.40;1.30;;;23.80;46.10;;;;;;4965196;28;20198;-82
2023/05/06 09:53:28;;;;;;;1.50;1.40;;;23.80;47.00;;;;;;4965246;28;20544;-82
2023/05/06 09:55:57;;;;;;;2.17;1.15;;;23.80;47.10;;;;;;4968710;28;20276;-82
2023/05/06 09:58:26;;;;;;;1.48;1.30;;;23.80;47.00;;;;;;4961209;28;20202;-82
2023/05/06 10:00:53;;;;;;;2.28;1.40;;;23.60;47.30;;;;;;4992189;28;20202;-82
2023/05/06 10:03:20;;;;;;;1.30;1.17;;;23.50;48.20;;;;;;4957436;28;20266;-79
2023/05/06 10:05:47;;;;;;;1.85;1.20;;;23.50;48.10;;;;;;4972658;28;20198;-80
2023/05/06 10:08:17;;;;;;;3.10;1.40;;;23.60;48.20;;;;;;4973275;28;20314;-80
2023/05/06 10:10:45;;;;;;;2.63;1.23;;;23.60;48.10;;;;;;4968772;28;20199;-81
2023/05/06 10:13:12;;;;;;;3.72;1.40;;;23.70;48.00;;;;;;4963100;28;20206;-80
2023/05/06 10:15:41;;;;;;;1.67;1.30;;;23.70;48.10;;;;;;4960684;28;20660;-80
2023/05/06 10:18:09;;;;;;;1.00;1.00;;;23.80;48.60;;;;;;4959933;28;20671;-80
2023/05/06 10:20:36;;;;;;;1.23;1.00;;;23.90;47.80;;;;;;4963240;28;20205;-81
2023/05/06 10:23:09;;;;;;;4.05;1.15;;;23.90;47.70;;;;;;4959388;28;20710;-81
2023/05/06 10:25:38;;;;;;;1.77;1.00;;;23.80;48.00;;;;;;4960205;28;20229;-81
2023/05/06 10:28:10;;;;;;;1.17;1.10;;;23.90;48.00;;;;;;4959178;28;20222;-81
2023/05/06 10:30:38;;;;;;;1.85;1.10;;;24.00;48.10;;;;;;4959337;28;20201;-81
2023/05/06 10:33:08;;;;;;;2.05;1.05;;;24.00;48.10;;;;;;4976444;28;20696;-81
2023/05/06 10:35:41;;;;;;;1.35;1.17;;;24.10;48.00;;;;;;4960206;28;20206;-81
2023/05/06 10:38:11;;;;;;;1.77;1.20;;;24.10;47.70;;;;;;4943567;28;20194;-81
2023/05/06 10:40:38;;;;;;;1.15;1.05;;;24.10;47.70;;;;;;4958855;28;20206;-81
2023/05/06 10:43:22;;;;;;;0.90;0.90;;;24.20;47.70;;;;;;4958655;28;20632;-81
2023/05/06 10:45:59;;;;;;;1.52;1.20;;;24.30;47.40;;;;;;4958847;28;20590;-81
2023/05/06 10:48:27;;;;;;;1.17;1.08;;;24.50;47.20;;;;;;4958457;28;20288;-81
2023/05/06 10:51:20;;;;;;;1.20;1.10;;;24.60;46.80;;;;;;4959926;28;20212;-80
2023/05/06 10:54:02;;;;;;;2.17;1.10;;;24.70;46.70;;;;;;4962965;28;20197;-80
2023/05/06 10:56:30;;;;;;;1.50;1.10;;;24.80;46.60;;;;;;4961964;28;20205;-80
2023/05/06 10:59:06;;;;;;;1.40;1.17;;;24.80;46.40;;;;;;4962293;28;20224;-80
2023/05/06 11:01:33;;;;;;;1.10;1.00;;;24.80;46.20;;;;;;4962459;28;20229;-80
2023/05/06 11:04:10;;;;;;;1.40;1.10;;;24.90;46.40;;;;;;4960784;28;20298;-80
2023/05/06 11:06:39;;;;;;;1.75;1.10;;;24.90;46.40;;;;;;4960720;28;20248;-80
2023/05/06 11:09:06;;;;;;;1.42;1.00;;;24.80;46.40;;;;;;4962164;28;20696;-80
2023/05/06 11:11:47;;;;;;;1.25;1.17;;;24.80;46.50;;;;;;4961071;28;20224;-80
2023/05/06 11:14:14;;;;;;;0.95;0.90;;;24.70;46.50;;;;;;4959600;28;20208;-80
2023/05/06 11:16:47;;;;;;;1.38;1.00;;;24.60;46.50;;;;;;4958790;28;20604;-80
2023/05/06 11:19:20;;;;;;;1.10;1.00;;;24.60;46.60;;;;;;4958585;28;20630;-80
2023/05/06 11:21:48;;;;;;;1.63;1.10;;;24.60;46.70;;;;;;4960303;28;20685;-80
2023/05/06 11:24:21;;;;;;;1.90;0.80;;;24.60;46.70;;;;;;4943564;28;20214;-80
2023/05/06 11:26:49;;;;;;;1.05;0.93;;;24.50;46.70;;;;;;4959901;28;20217;-80
2023/05/06 11:29:16;;;;;;;1.17;0.98;;;24.50;46.60;;;;;;4958395;28;20249;-80
2023/05/06 11:31:43;;;;;;;0.98;0.98;;;24.50;46.80;;;;;;4958635;28;20228;-80
2023/05/06 11:34:12;;;;;;;1.60;1.02;;;24.40;46.50;;;;;;4958834;28;20228;-80
2023/05/06 11:36:55;;;;;;;0.90;0.90;;;24.40;46.70;;;;;;4943392;28;20210;-81
2023/05/06 11:39:22;;;;;;;1.30;1.20;;;24.50;47.00;;;;;;4976265;28;20223;-81
2023/05/06 11:41:50;;;;;;;1.48;1.10;;;24.40;47.10;;;;;;4958444;28;20226;-81
2023/05/06 11:44:27;;;;;;;1.27;1.05;;;24.40;47.20;;;;;;4958761;28;20297;-80
2023/05/06 11:47:01;;;;;;;2.55;1.45;;;24.40;47.40;;;;;;4959662;28;20210;-80
2023/05/06 11:49:28;;;;;;;2.17;1.58;;;24.40;47.40;;;;;;4959718;28;20209;-80
2023/05/06 11:51:57;;;;;;;2.22;1.35;;;24.30;44.70;;;;;;4961128;28;20225;-80
2023/05/06 11:54:25;;;;;;;2.88;1.35;;;24.30;45.50;;;;;;4959994;28;20206;-80
2023/05/06 11:56:53;;;;;;;2.28;1.20;;;24.30;45.50;;;;;;4960346;28;20202;-80
2023/05/06 11:59:27;;;;;;;1.85;1.50;;;24.30;45.40;;;;;;4959134;28;20198;-80
2023/05/06 12:01:56;;;;;;;2.28;1.30;;;24.30;45.10;;;;;;4959251;28;20252;-81
2023/05/06 12:04:24;;;;;;;1.58;1.42;;;24.30;45.40;;;;;;4959869;28;20198;-81
2023/05/06 12:06:52;;;;;;;2.53;1.40;;;24.30;45.60;;;;;;4951242;28;20265;-81
2023/05/06 12:09:24;;;;;;;4.50;1.40;;;24.30;45.50;;;;;;4966242;28;20222;-81
2023/05/06 12:11:51;;;;;;;1.73;1.45;;;24.30;45.20;;;;;;4961388;28;20222;-81
2023/05/06 12:14:18;;;;;;;1.42;1.33;;;24.30;45.30;;;;;;4962063;28;20206;-81
2023/05/06 12:16:46;;;;;;;1.45;1.35;;;24.20;44.60;;;;;;4961723;28;20212;-81
2023/05/06 12:19:16;;;;;;;1.60;1.30;;;24.20;45.10;;;;;;4945658;28;20628;-81
2023/05/06 12:21:43;;;;;;;3.20;1.42;;;24.20;45.30;;;;;;4961337;28;20700;-81
2023/05/06 12:24:11;;;;;;;2.47;1.42;;;24.10;44.60;;;;;;4961477;28;20206;-81
2023/05/06 12:26:47;;;;;;;2.17;1.60;;;24.10;44.70;;;;;;4961541;28;20258;-81
2023/05/06 12:29:16;;;;;;;2.03;1.50;;;24.00;44.10;;;;;;4961588;28;20222;-81
2023/05/06 12:31:45;;;;;;;1.30;1.20;;;24.00;44.40;;;;;;4962133;28;20693;-81
2023/05/06 12:34:13;;;;;;;1.88;1.27;;;24.00;44.40;;;;;;4961471;28;20233;-81
2023/05/06 12:36:41;;;;;;;2.63;1.30;;;24.10;44.80;;;;;;4961748;28;20194;-81
2023/05/06 12:39:10;;;;;;;1.88;1.40;;;24.10;44.10;;;;;;4945499;28;20190;-81
2023/05/06 12:41:39;;;;;;;1.98;1.20;;;24.20;44.60;;;;;;4962043;28;20317;-81
2023/05/06 12:44:36;;;;;;;1.95;1.40;;;24.10;44.00;;;;;;4961829;28;20629;-81
2023/05/06 12:47:06;;;;;;;2.05;1.40;;;24.10;44.50;;;;;;4961291;28;20220;-81
2023/05/06 12:49:49;;;;;;;1.52;1.42;;;24.20;44.70;;;;;;4961937;28;20225;-81
2023/05/06 12:52:16;;;;;;;2.00;1.50;;;24.10;44.50;;;;;;4962186;28;20225;-81
2023/05/06 12:54:43;;;;;;;1.40;1.20;;;24.10;44.60;;;;;;4961168;28;20244;-81
2023/05/06 12:57:11;;;;;;;1.25;1.08;;;24.00;44.80;;;;;;4961274;28;20305;-81
2023/05/06 12:59:40;;;;;;;1.60;1.27;;;24.10;44.90;;;;;;4962144;28;20194;-81